Location:
 IT 
 EN 
 FR 
 DE 
 ES 

Current weather

Datameteo.com Informazioni Meteo attuali
Milano / Linate, Italy
Alba: 5:17 AM UTC1
Tramonto: 7:36 PM UTC1
 Lat: 45.42N, Lon: 9.27E
ICAO Used: LIML
Realzeit wetter, Realtime weather, Metèo en temps reel, Dato en tiempo real, Akt, Upd,Mis a j, Act
Update: 0920 AM UTC+1 MAR AGO 11 2020
Quasi Sereno
Temp: 29°C
Feuchte/Humidity/Humiditè/Humedad': 52%
Wind-Wind-Vent-Viento: S 04 KTS /
Pressione-Pressure-Pression-Presìon: 1016 hPa
Tautemperatur-Dew Point-P. de Rosèe-Temp rocìo: 18°C
Wärmindex-Feels like-Index de Chaleur-Indice Calor: 30°C
Sicht-Visibility-Visibilitè-Visibilidad: N/D
Wind Chill-Refroidissement eolien-Indice Calor Viento (Wind Chill): N/D
Ho"chs,High,Max 14 hr: 28°C
Mindes,Low,Min 24 hr: 21°C


ORIGINAL METAR
LIML 110920Z 18004KT 110V240 CAVOK 29/18 Q1016 NOSIG




Elaborazione dati by Datameteo.com - Lrc Servizi srl Copyright ©, All rights reserved.
View the web version
©2010 Datameteo.com
weather mobile,mobile weather,meteo mobile,mobile meteo,meteo sul telefonino datameteo.com